createdAt,value
2022-08-04T00:00:40.417Z,4.00
2022-08-04T00:03:18.185Z,3.42
2022-08-04T00:06:04.667Z,4.30
2022-08-04T00:08:46.251Z,3.75
2022-08-04T00:11:19.840Z,4.65
2022-08-04T00:14:03.066Z,4.13
2022-08-04T00:16:37.769Z,3.90
2022-08-04T00:19:22.147Z,4.38
2022-08-04T00:21:56.694Z,4.13
2022-08-04T00:24:23.861Z,4.10
2022-08-04T00:26:54.034Z,4.38
2022-08-04T00:29:21.945Z,4.05
2022-08-04T00:31:56.497Z,4.18
2022-08-04T00:34:28.552Z,4.18
2022-08-04T00:36:56.538Z,4.47
2022-08-04T00:39:23.413Z,4.57
2022-08-04T00:41:57.057Z,4.05
2022-08-04T00:44:54.241Z,4.28
2022-08-04T00:47:40.405Z,4.30
2022-08-04T00:50:28.935Z,4.10
2022-08-04T00:53:14.451Z,4.30
2022-08-04T00:55:49.767Z,4.85
2022-08-04T00:58:50.420Z,4.70
2022-08-04T01:01:35.390Z,4.03
2022-08-04T01:04:22.329Z,5.15
2022-08-04T01:07:15.439Z,4.38
2022-08-04T01:09:57.106Z,4.63
2022-08-04T01:12:41.711Z,4.78
2022-08-04T01:15:23.009Z,4.82
2022-08-04T01:18:01.636Z,4.70
2022-08-04T01:20:35.037Z,4.28
2022-08-04T01:23:32.389Z,5.30
2022-08-04T01:26:43.855Z,4.78
2022-08-04T01:29:24.591Z,4.72
2022-08-04T01:32:04.765Z,4.97
2022-08-04T01:34:36.652Z,4.55
2022-08-04T01:37:18.494Z,4.50
2022-08-04T01:39:56.584Z,4.72
2022-08-04T01:42:31.612Z,4.75
2022-08-04T01:45:02.515Z,4.97
2022-08-04T01:47:30.794Z,4.50
2022-08-04T01:50:06.053Z,4.60
2022-08-04T01:52:34.960Z,4.00
2022-08-04T01:55:05.150Z,4.28
2022-08-04T01:57:38.637Z,3.90
2022-08-04T02:00:06.902Z,4.20
2022-08-04T02:02:34.252Z,4.32
2022-08-04T02:05:00.851Z,4.13
2022-08-04T02:07:40.440Z,4.78
2022-08-04T02:10:49.379Z,4.68
2022-08-04T02:13:28.316Z,5.07
2022-08-04T02:16:28.144Z,4.60
2022-08-04T02:19:19.939Z,4.82
2022-08-04T02:21:51.563Z,4.88
2022-08-04T02:24:24.447Z,5.03
2022-08-04T02:26:53.515Z,5.50
2022-08-04T02:29:29.223Z,5.45
2022-08-04T02:32:04.370Z,4.90
2022-08-04T02:34:47.909Z,5.28
2022-08-04T02:37:17.293Z,4.70
2022-08-04T02:39:48.451Z,5.00
2022-08-04T02:42:16.678Z,4.95
2022-08-04T02:44:43.402Z,5.20
2022-08-04T02:47:11.589Z,5.25
2022-08-04T02:49:41.236Z,5.28
2022-08-04T02:52:12.553Z,5.18
2022-08-04T02:54:40.999Z,5.22
2022-08-04T02:57:12.430Z,4.90
2022-08-04T02:59:51.600Z,4.82
2022-08-04T03:02:28.756Z,5.45
2022-08-04T03:05:02.510Z,6.03
2022-08-04T03:07:51.582Z,5.82
2022-08-04T03:10:55.264Z,5.63
2022-08-04T03:13:59.722Z,5.47
2022-08-04T03:16:51.797Z,5.18
2022-08-04T03:19:58.482Z,6.63
2022-08-04T03:23:12.121Z,6.50
2022-08-04T03:26:17.272Z,5.60
2022-08-04T03:29:08.316Z,5.65
2022-08-04T03:35:02.653Z,5.68
2022-08-04T03:37:58.317Z,5.72
2022-08-04T03:40:30.514Z,5.25
2022-08-04T03:43:57.115Z,5.00
2022-08-04T03:46:25.735Z,5.97
2022-08-04T03:49:32.879Z,5.40
2022-08-04T03:52:55.174Z,5.82
2022-08-04T03:55:40.047Z,6.03
2022-08-04T03:58:52.678Z,6.43
2022-08-04T04:02:02.737Z,5.50
2022-08-04T04:05:03.938Z,5.55
2022-08-04T04:07:59.653Z,6.53
2022-08-04T04:10:51.670Z,5.80
2022-08-04T04:13:49.418Z,6.38
2022-08-04T04:16:58.064Z,6.03
2022-08-04T04:19:52.354Z,5.18
2022-08-04T04:22:53.762Z,5.80
2022-08-04T04:25:41.522Z,6.13
2022-08-04T04:28:43.494Z,5.43
2022-08-04T04:31:49.359Z,5.60
2022-08-04T04:34:35.299Z,6.25
2022-08-04T04:37:20.749Z,5.53
2022-08-04T04:40:03.375Z,5.85
2022-08-04T04:42:49.608Z,6.10
2022-08-04T04:45:34.463Z,5.93
2022-08-04T04:48:17.816Z,6.15
2022-08-04T04:50:47.096Z,6.20
2022-08-04T04:53:24.001Z,6.25
2022-08-04T04:56:05.606Z,7.00
2022-08-04T04:58:34.070Z,7.18
2022-08-04T05:01:09.374Z,7.00
2022-08-04T05:03:52.061Z,7.90
2022-08-04T05:06:54.352Z,8.80
2022-08-04T05:09:31.177Z,8.15
2022-08-04T05:14:24.848Z,7.95
2022-08-04T05:14:58.337Z,7.85
2022-08-04T05:17:33.740Z,8.75
2022-08-04T05:20:08.136Z,8.20
2022-08-04T05:22:56.812Z,7.75
2022-08-04T05:25:34.715Z,7.30
2022-08-04T05:28:12.144Z,6.93
2022-08-04T05:30:48.582Z,7.38
2022-08-04T05:33:31.236Z,7.85
2022-08-04T05:36:18.503Z,6.78
2022-08-04T05:38:59.987Z,5.90
2022-08-04T05:41:44.918Z,7.50
2022-08-04T05:44:15.084Z,6.93
2022-08-04T05:46:43.586Z,7.65
2022-08-04T05:49:10.766Z,7.50
2022-08-04T05:51:47.290Z,7.55
2022-08-04T05:54:15.167Z,7.68
2022-08-04T05:56:42.495Z,8.13
2022-08-04T05:59:12.642Z,10.50
2022-08-04T06:01:55.485Z,10.25
2022-08-04T06:04:31.229Z,10.05
2022-08-04T06:06:57.727Z,9.68
2022-08-04T06:09:24.343Z,9.23
2022-08-04T06:12:02.131Z,8.80
2022-08-04T06:14:39.446Z,8.95
2022-08-04T06:18:33.367Z,8.95
2022-08-04T06:19:59.898Z,8.52
2022-08-04T06:22:34.292Z,7.75
2022-08-04T06:25:02.814Z,9.23
2022-08-04T06:27:31.499Z,8.25
2022-08-04T06:29:59.843Z,8.40
2022-08-04T06:32:34.687Z,7.53
2022-08-04T06:35:05.019Z,7.72
2022-08-04T06:37:42.058Z,9.13
2022-08-04T06:40:31.702Z,7.57
2022-08-04T06:43:00.664Z,7.78
2022-08-04T06:45:27.772Z,7.10
2022-08-04T06:47:55.411Z,7.35
2022-08-04T06:51:25.475Z,6.47
2022-08-04T06:53:09.808Z,7.40
2022-08-04T06:55:37.233Z,6.25
2022-08-04T06:58:05.120Z,6.82
2022-08-04T07:00:32.376Z,6.05
2022-08-04T07:02:59.603Z,6.38
2022-08-04T07:05:26.678Z,5.90
2022-08-04T07:07:56.859Z,5.63
2022-08-04T07:10:28.450Z,6.07
2022-08-04T07:12:59.400Z,5.40
2022-08-04T07:15:26.671Z,5.20
2022-08-04T07:17:54.099Z,5.03
2022-08-04T07:20:34.556Z,5.55
2022-08-04T07:23:03.393Z,5.00
2022-08-04T07:26:00.705Z,4.90
2022-08-04T07:28:16.612Z,3.97
2022-08-04T07:30:44.824Z,4.47
2022-08-04T07:33:11.666Z,5.32
2022-08-04T07:36:04.858Z,4.38
2022-08-04T07:38:27.713Z,5.35
2022-08-04T07:40:55.414Z,4.97
2022-08-04T07:43:22.782Z,4.47
2022-08-04T07:45:49.490Z,4.57
2022-08-04T07:48:18.659Z,4.82
2022-08-04T07:50:45.482Z,4.80
2022-08-04T07:53:55.558Z,4.70
2022-08-04T07:56:02.162Z,4.72
2022-08-04T07:58:30.257Z,4.95
2022-08-04T08:00:57.677Z,4.75
2022-08-04T08:03:25.166Z,5.13
2022-08-04T08:06:16.408Z,4.32
2022-08-04T08:08:39.516Z,4.03
2022-08-04T08:11:07.177Z,4.18
2022-08-04T08:13:34.722Z,4.57
2022-08-04T08:16:01.597Z,4.18
2022-08-04T08:18:28.031Z,3.63
2022-08-04T08:20:55.391Z,4.13
2022-08-04T08:23:22.290Z,3.83
2022-08-04T08:25:49.321Z,4.10
2022-08-04T08:28:16.656Z,4.05
2022-08-04T08:30:43.222Z,4.53
2022-08-04T08:33:14.884Z,4.35
2022-08-04T08:35:54.704Z,4.00
2022-08-04T08:41:30.630Z,3.83
2022-08-04T08:44:37.530Z,3.50
2022-08-04T08:48:05.487Z,3.78
2022-08-04T08:50:49.568Z,4.05
2022-08-04T08:53:36.114Z,3.85
2022-08-04T08:56:16.437Z,4.15
2022-08-04T08:59:01.741Z,4.35
2022-08-04T09:02:19.982Z,4.13
2022-08-04T09:04:59.127Z,3.58
2022-08-04T09:07:45.110Z,3.13
2022-08-04T09:10:41.073Z,3.60
2022-08-04T09:13:19.652Z,3.47
2022-08-04T09:16:10.369Z,3.53
2022-08-04T09:18:46.011Z,2.88
2022-08-04T09:21:33.343Z,3.65
2022-08-04T09:24:35.066Z,3.08
2022-08-04T09:27:09.812Z,3.30
2022-08-04T09:29:45.192Z,2.85
2022-08-04T09:32:23.538Z,3.30
2022-08-04T09:35:08.432Z,3.45
2022-08-04T09:37:45.888Z,3.00
2022-08-04T09:40:31.831Z,2.83
2022-08-04T09:43:57.124Z,2.65
2022-08-04T09:46:27.825Z,2.70
2022-08-04T09:49:02.567Z,2.50
2022-08-04T09:51:57.403Z,2.83
2022-08-04T09:54:44.145Z,2.90
2022-08-04T09:57:29.826Z,3.03
2022-08-04T10:00:05.390Z,2.35
2022-08-04T10:02:42.551Z,2.72
2022-08-04T10:05:16.250Z,2.45
2022-08-04T10:07:59.495Z,2.38
2022-08-04T10:10:56.556Z,3.05
2022-08-04T10:13:39.257Z,2.50
2022-08-04T10:16:29.634Z,2.35
2022-08-04T10:19:17.444Z,2.65
2022-08-04T10:22:26.927Z,2.42
2022-08-04T10:25:02.231Z,2.42
2022-08-04T10:27:44.629Z,2.80
2022-08-04T10:30:13.820Z,2.33
2022-08-04T10:33:03.903Z,2.58
2022-08-04T10:35:38.560Z,2.92
2022-08-04T10:38:30.831Z,2.72
2022-08-04T10:41:06.424Z,2.70
2022-08-04T10:43:35.518Z,2.88
2022-08-04T10:46:16.194Z,2.43
2022-08-04T10:49:07.364Z,2.85
2022-08-04T10:52:05.299Z,2.75
2022-08-04T10:54:53.583Z,2.70
2022-08-04T10:57:28.502Z,2.88
2022-08-04T11:00:09.624Z,2.58
2022-08-04T11:02:54.275Z,2.83
2022-08-04T11:05:27.235Z,3.20
2022-08-04T11:08:00.207Z,2.80
2022-08-04T11:10:32.994Z,3.03
2022-08-04T11:13:22.004Z,2.83
2022-08-04T11:16:00.534Z,3.15
2022-08-04T11:18:42.715Z,3.10
2022-08-04T11:21:21.357Z,3.15
2022-08-04T11:24:26.483Z,3.33
2022-08-04T11:27:03.827Z,3.17
2022-08-04T11:29:59.025Z,3.35
2022-08-04T11:33:01.066Z,3.50
2022-08-04T11:35:52.489Z,2.90
2022-08-04T11:38:21.516Z,3.30
2022-08-04T11:41:03.144Z,4.10
2022-08-04T11:44:01.662Z,3.22
2022-08-04T11:46:38.400Z,3.40
2022-08-04T11:49:11.829Z,2.63
2022-08-04T11:51:39.600Z,2.67
2022-08-04T11:54:06.457Z,2.65
2022-08-04T11:56:35.876Z,2.33
2022-08-04T11:59:07.582Z,2.35
2022-08-04T12:02:05.255Z,2.72
2022-08-04T12:04:50.153Z,2.63
2022-08-04T12:08:03.293Z,2.50
2022-08-04T12:10:57.557Z,3.03
2022-08-04T12:13:34.928Z,2.50
2022-08-04T12:16:14.882Z,1.95
2022-08-04T12:18:57.501Z,2.33
2022-08-04T12:21:39.610Z,2.13
2022-08-04T12:24:20.004Z,2.40
2022-08-04T12:26:53.936Z,2.00
2022-08-04T12:29:22.633Z,2.60
2022-08-04T12:32:10.289Z,2.53
2022-08-04T12:34:46.273Z,2.30
2022-08-04T12:37:34.835Z,2.83
2022-08-04T12:40:29.209Z,2.65
2022-08-04T12:43:23.359Z,2.15
2022-08-04T12:45:52.982Z,2.67
2022-08-04T12:50:53.894Z,2.58
2022-08-04T12:53:31.917Z,2.65
2022-08-04T12:56:01.785Z,2.67
2022-08-04T12:58:42.306Z,2.40
2022-08-04T13:02:08.014Z,2.47
2022-08-04T13:04:15.319Z,2.72
2022-08-04T13:06:43.202Z,2.30
2022-08-04T13:09:18.571Z,2.58
2022-08-04T13:11:53.246Z,2.33
2022-08-04T13:14:27.014Z,2.40
2022-08-04T13:16:58.963Z,2.10
2022-08-04T13:19:27.062Z,2.35
2022-08-04T13:22:02.709Z,2.67
2022-08-04T13:24:33.651Z,2.78
2022-08-04T13:27:06.765Z,1.83
2022-08-04T13:29:59.401Z,2.25
2022-08-04T13:32:29.888Z,2.50
2022-08-04T13:34:59.837Z,2.08
2022-08-04T13:37:33.397Z,2.20
2022-08-04T13:40:03.439Z,2.60
2022-08-04T13:42:31.160Z,2.58
2022-08-04T13:45:00.943Z,2.60
2022-08-04T13:47:34.848Z,2.13
2022-08-04T13:50:15.332Z,2.40
2022-08-04T13:52:43.278Z,2.10
2022-08-04T13:55:24.849Z,2.00
2022-08-04T13:57:57.607Z,2.00
2022-08-04T14:00:30.200Z,2.05
2022-08-04T14:03:03.446Z,1.95
2022-08-04T14:05:59.559Z,2.00
2022-08-04T14:08:29.123Z,2.10
2022-08-04T14:10:58.628Z,2.67
2022-08-04T14:13:41.761Z,2.15
2022-08-04T14:16:20.289Z,2.10
2022-08-04T14:18:47.966Z,2.45
2022-08-04T14:21:17.384Z,2.20
2022-08-04T14:24:10.273Z,2.53
2022-08-04T14:26:37.086Z,2.15
2022-08-04T14:29:28.713Z,2.70
2022-08-04T14:32:10.768Z,2.30
2022-08-04T14:34:41.424Z,2.40
2022-08-04T14:37:17.297Z,2.13
2022-08-04T14:40:17.998Z,2.53
2022-08-04T14:42:55.475Z,2.38
2022-08-04T14:45:55.535Z,2.25
2022-08-04T14:48:22.747Z,2.58
2022-08-04T14:50:50.324Z,2.20
2022-08-04T14:53:20.654Z,2.15
2022-08-04T14:55:54.403Z,2.30
2022-08-04T14:58:33.911Z,2.17
2022-08-04T15:01:10.789Z,2.33
2022-08-04T15:03:51.012Z,2.05
2022-08-04T15:06:26.248Z,2.30
2022-08-04T15:08:55.417Z,2.25
2022-08-04T15:11:24.335Z,2.00
2022-08-04T15:13:56.014Z,2.00
2022-08-04T15:16:23.690Z,2.25
2022-08-04T15:18:51.113Z,2.35
2022-08-04T15:21:22.448Z,2.10
2022-08-04T15:23:50.743Z,1.85
2022-08-04T15:26:23.959Z,1.83
2022-08-04T15:28:56.086Z,1.90
2022-08-04T15:32:05.881Z,2.30
2022-08-04T15:34:12.453Z,2.33
2022-08-04T15:36:56.844Z,2.28
2022-08-04T15:39:35.999Z,1.60
2022-08-04T15:42:21.935Z,1.90
2022-08-04T15:44:51.757Z,2.08
2022-08-04T15:47:18.604Z,2.00
2022-08-04T15:49:45.734Z,1.83
2022-08-04T15:52:18.340Z,1.90
2022-08-04T15:54:52.409Z,1.92
2022-08-04T15:58:09.418Z,2.10
2022-08-04T16:00:52.065Z,1.73
2022-08-04T16:03:53.094Z,2.80
2022-08-04T16:06:20.588Z,2.13
2022-08-04T16:08:52.542Z,2.40
2022-08-04T16:11:31.087Z,2.15
2022-08-04T16:13:58.802Z,2.03
2022-08-04T16:16:45.438Z,2.20
2022-08-04T16:19:18.767Z,2.25
2022-08-04T16:21:49.781Z,2.28
2022-08-04T16:24:22.170Z,1.70
2022-08-04T16:26:56.469Z,2.20
2022-08-04T16:29:23.140Z,2.30
2022-08-04T16:32:04.997Z,2.13
2022-08-04T16:34:32.380Z,2.25
2022-08-04T16:37:14.287Z,2.75
2022-08-04T16:39:50.049Z,2.45
2022-08-04T16:42:32.859Z,1.95
2022-08-04T16:45:08.251Z,2.40
2022-08-04T16:47:49.806Z,2.75
2022-08-04T16:50:18.276Z,2.17
2022-08-04T16:52:46.368Z,2.15
2022-08-04T16:55:15.815Z,2.30
2022-08-04T16:57:46.317Z,2.30
2022-08-04T17:00:12.896Z,2.22
2022-08-04T17:02:39.634Z,2.40
2022-08-04T17:05:38.507Z,3.10
2022-08-04T17:08:28.586Z,2.90
2022-08-04T17:10:53.787Z,2.38
2022-08-04T17:14:02.348Z,2.40
2022-08-04T17:16:23.748Z,2.15
2022-08-04T17:18:52.826Z,2.17
2022-08-04T17:21:26.141Z,2.10
2022-08-04T17:24:12.679Z,2.15
2022-08-04T17:26:42.074Z,2.10
2022-08-04T17:29:18.229Z,2.10
2022-08-04T17:31:46.636Z,1.92
2022-08-04T17:34:16.745Z,2.10
2022-08-04T17:36:45.876Z,2.55
2022-08-04T17:39:21.383Z,2.20
2022-08-04T17:41:49.111Z,3.13
2022-08-04T17:44:16.406Z,2.30
2022-08-04T17:46:48.149Z,2.60
2022-08-04T17:49:18.187Z,2.35
2022-08-04T17:52:05.104Z,2.10
2022-08-04T17:54:38.961Z,2.10
2022-08-04T17:57:21.605Z,2.08
2022-08-04T17:59:57.514Z,1.90
2022-08-04T18:02:32.346Z,2.30
2022-08-04T18:05:10.007Z,1.90
2022-08-04T18:08:40.082Z,1.92
2022-08-04T18:10:51.523Z,2.20
2022-08-04T18:13:27.188Z,2.25
2022-08-04T18:19:08.096Z,2.42
2022-08-04T18:21:34.550Z,2.33
2022-08-04T18:24:14.320Z,2.45
2022-08-04T18:26:41.895Z,2.15
2022-08-04T18:29:26.620Z,2.67
2022-08-04T18:31:58.121Z,2.63
2022-08-04T18:34:24.899Z,2.08
2022-08-04T18:36:57.306Z,2.20
2022-08-04T18:40:09.781Z,2.50
2022-08-04T18:42:14.747Z,2.42
2022-08-04T18:44:52.017Z,2.20
2022-08-04T18:47:23.020Z,2.45
2022-08-04T18:50:40.194Z,2.42
2022-08-04T18:52:45.231Z,2.22
2022-08-04T18:55:12.227Z,2.33
2022-08-04T18:57:58.879Z,2.63
2022-08-04T19:00:25.128Z,2.20
2022-08-04T19:02:52.251Z,2.38
2022-08-04T19:05:19.494Z,2.53
2022-08-04T19:08:01.940Z,2.50
2022-08-04T19:10:29.095Z,2.30
2022-08-04T19:12:56.098Z,2.60
2022-08-04T19:15:22.530Z,2.83
2022-08-04T19:18:01.107Z,2.53
2022-08-04T19:20:28.568Z,2.58
2022-08-04T19:24:32.864Z,2.35
2022-08-04T19:28:34.788Z,2.80
2022-08-04T19:31:06.875Z,2.38
2022-08-04T19:33:58.418Z,2.58
2022-08-04T19:36:21.108Z,2.50
2022-08-04T19:38:55.388Z,2.75
2022-08-04T19:41:22.431Z,2.40
2022-08-04T19:43:51.416Z,2.33
2022-08-04T19:46:17.894Z,2.67
2022-08-04T19:48:44.646Z,2.75
2022-08-04T19:51:27.818Z,3.00
2022-08-04T19:53:59.211Z,2.47
2022-08-04T19:56:30.947Z,2.92
2022-08-04T19:59:07.559Z,2.50
2022-08-04T20:01:37.077Z,2.97
2022-08-04T20:04:11.346Z,2.45
2022-08-04T20:06:37.887Z,3.22
2022-08-04T20:09:04.363Z,2.95
2022-08-04T20:11:50.899Z,3.15
2022-08-04T20:14:17.811Z,3.78
2022-08-04T20:16:46.344Z,3.22
2022-08-04T20:19:14.193Z,3.40
2022-08-04T20:21:55.299Z,3.20
2022-08-04T20:24:36.800Z,3.22
2022-08-04T20:27:07.787Z,3.35
2022-08-04T20:29:40.008Z,3.78
2022-08-04T20:32:09.712Z,3.20
2022-08-04T20:34:36.740Z,3.67
2022-08-04T20:37:03.181Z,3.03
2022-08-04T20:39:30.818Z,2.58
2022-08-04T20:41:57.714Z,2.50
2022-08-04T20:44:24.475Z,2.88
2022-08-04T20:46:51.170Z,2.90
2022-08-04T20:49:17.738Z,3.80
2022-08-04T20:51:44.303Z,3.13
2022-08-04T20:54:16.506Z,2.60
2022-08-04T20:56:50.499Z,2.80
2022-08-04T20:59:18.151Z,2.40
2022-08-04T21:01:45.344Z,3.25
2022-08-04T21:04:34.087Z,2.80
2022-08-04T21:07:05.660Z,2.75
2022-08-04T21:09:37.928Z,3.03
2022-08-04T21:12:10.712Z,2.53
2022-08-04T21:14:53.554Z,3.08
2022-08-04T21:17:20.861Z,3.30
2022-08-04T21:20:07.512Z,2.80
2022-08-04T21:22:39.179Z,2.55
2022-08-04T21:25:06.066Z,2.65
2022-08-04T21:27:35.773Z,3.17
2022-08-04T21:30:21.339Z,2.30
2022-08-04T21:32:51.463Z,2.75
2022-08-04T21:35:18.891Z,3.00
2022-08-04T21:37:56.694Z,2.97
2022-08-04T21:43:11.202Z,3.22
2022-08-04T21:45:38.232Z,2.30
2022-08-04T21:48:04.989Z,3.45
2022-08-04T21:50:31.409Z,3.13
2022-08-04T21:52:58.927Z,2.92
2022-08-04T21:56:05.158Z,3.15
2022-08-04T21:58:13.434Z,6.28
2022-08-04T22:00:40.597Z,6.38
2022-08-04T22:03:11.346Z,5.00
2022-08-04T22:05:56.535Z,4.28
2022-08-04T22:08:23.595Z,3.92
2022-08-04T22:10:56.096Z,3.70
2022-08-04T22:13:24.416Z,3.10
2022-08-04T22:16:10.941Z,3.33
2022-08-04T22:18:37.353Z,3.47
2022-08-04T22:21:11.816Z,3.00
2022-08-04T22:23:45.075Z,2.90
2022-08-04T22:26:26.967Z,3.70
2022-08-04T22:28:54.742Z,3.17
2022-08-04T22:31:23.984Z,3.22
2022-08-04T22:33:54.543Z,2.90
2022-08-04T22:36:24.657Z,3.47
2022-08-04T22:38:57.050Z,3.05
2022-08-04T22:41:33.782Z,3.25
2022-08-04T22:44:01.064Z,3.65
2022-08-04T22:46:30.152Z,2.80
2022-08-04T22:48:56.879Z,3.42
2022-08-04T22:51:23.976Z,3.35
2022-08-04T22:53:53.745Z,3.43
2022-08-04T22:56:37.832Z,3.30
2022-08-04T22:59:05.825Z,2.97
2022-08-04T23:01:59.283Z,3.08
2022-08-04T23:04:21.631Z,3.65
2022-08-04T23:06:49.959Z,3.60
2022-08-04T23:09:17.072Z,3.92
2022-08-04T23:11:43.931Z,3.50
2022-08-04T23:14:10.831Z,3.83
2022-08-04T23:16:40.829Z,3.33
2022-08-04T23:19:12.064Z,3.03
2022-08-04T23:21:47.752Z,5.65
2022-08-04T23:24:29.519Z,3.95
2022-08-04T23:26:56.928Z,3.63
2022-08-04T23:29:23.428Z,3.55
2022-08-04T23:31:59.653Z,4.10
2022-08-04T23:34:29.307Z,3.63
2022-08-04T23:36:56.299Z,3.58
2022-08-04T23:39:25.835Z,3.22
2022-08-04T23:42:14.892Z,3.15
2022-08-04T23:44:41.636Z,3.38
2022-08-04T23:47:08.139Z,3.40
2022-08-04T23:49:44.044Z,3.85
2022-08-04T23:52:27.710Z,3.72
2022-08-04T23:54:59.652Z,3.70
2022-08-04T23:58:06.503Z,3.67
